sensor_id;sensor_type;location;lat;lon;timestamp;pressure;altitude;pressure_sealevel;temperature
79488;BMP180;68949;53.176;18.088;2023-07-20T00:00:02;99864.20;;;
79488;BMP180;68949;53.176;18.088;2023-07-20T00:03:11;99867.40;;;
79488;BMP180;68949;53.176;18.088;2023-07-20T00:05:43;99872.20;;;
79488;BMP180;68949;53.176;18.088;2023-07-20T00:08:10;99873.40;;;
79488;BMP180;68949;53.176;18.088;2023-07-20T00:10:37;99865.40;;;
79488;BMP180;68949;53.176;18.088;2023-07-20T00:13:04;99867.00;;;
79488;BMP180;68949;53.176;18.088;2023-07-20T00:15:30;99862.60;;;
79488;BMP180;68949;53.176;18.088;2023-07-20T00:17:57;99866.80;;;
79488;BMP180;68949;53.176;18.088;2023-07-20T00:20:24;99867.00;;;
79488;BMP180;68949;53.176;18.088;2023-07-20T00:22:51;99874.40;;;
79488;BMP180;68949;53.176;18.088;2023-07-20T00:25:18;99876.40;;;
79488;BMP180;68949;53.176;18.088;2023-07-20T00:27:45;99875.80;;;
79488;BMP180;68949;53.176;18.088;2023-07-20T00:30:12;99875.80;;;
79488;BMP180;68949;53.176;18.088;2023-07-20T00:32:39;99878.00;;;
79488;BMP180;68949;53.176;18.088;2023-07-20T00:35:06;99875.80;;;
79488;BMP180;68949;53.176;18.088;2023-07-20T00:37:33;99884.40;;;
79488;BMP180;68949;53.176;18.088;2023-07-20T00:40:00;99894.60;;;
79488;BMP180;68949;53.176;18.088;2023-07-20T00:42:26;99895.40;;;
79488;BMP180;68949;53.176;18.088;2023-07-20T00:44:53;99894.60;;;
79488;BMP180;68949;53.176;18.088;2023-07-20T00:47:19;99891.80;;;
79488;BMP180;68949;53.176;18.088;2023-07-20T00:49:46;99888.00;;;
79488;BMP180;68949;53.176;18.088;2023-07-20T00:52:14;99885.20;;;
79488;BMP180;68949;53.176;18.088;2023-07-20T00:54:43;99884.00;;;
79488;BMP180;68949;53.176;18.088;2023-07-20T00:57:15;99885.40;;;
79488;BMP180;68949;53.176;18.088;2023-07-20T00:59:46;99881.80;;;
79488;BMP180;68949;53.176;18.088;2023-07-20T01:02:12;99886.80;;;
79488;BMP180;68949;53.176;18.088;2023-07-20T01:04:41;99883.20;;;
79488;BMP180;68949;53.176;18.088;2023-07-20T01:07:31;99877.00;;;
79488;BMP180;68949;53.176;18.088;2023-07-20T01:10:10;99882.00;;;
79488;BMP180;68949;53.176;18.088;2023-07-20T01:12:47;99888.80;;;
79488;BMP180;68949;53.176;18.088;2023-07-20T01:15:14;99884.40;;;
79488;BMP180;68949;53.176;18.088;2023-07-20T01:17:41;99883.20;;;
79488;BMP180;68949;53.176;18.088;2023-07-20T01:20:14;99888.00;;;
79488;BMP180;68949;53.176;18.088;2023-07-20T01:23:06;99887.60;;;
79488;BMP180;68949;53.176;18.088;2023-07-20T01:31:32;99882.00;;;
79488;BMP180;68949;53.176;18.088;2023-07-20T01:34:02;99885.60;;;
79488;BMP180;68949;53.176;18.088;2023-07-20T01:36:35;99884.00;;;
79488;BMP180;68949;53.176;18.088;2023-07-20T01:39:04;99883.20;;;
79488;BMP180;68949;53.176;18.088;2023-07-20T01:41:32;99891.00;;;
79488;BMP180;68949;53.176;18.088;2023-07-20T01:43:59;99887.20;;;
79488;BMP180;68949;53.176;18.088;2023-07-20T01:46:26;99888.60;;;
79488;BMP180;68949;53.176;18.088;2023-07-20T01:48:54;99895.40;;;
79488;BMP180;68949;53.176;18.088;2023-07-20T01:51:21;99894.80;;;
79488;BMP180;68949;53.176;18.088;2023-07-20T01:53:49;99890.60;;;
79488;BMP180;68949;53.176;18.088;2023-07-20T01:56:15;99890.00;;;
79488;BMP180;68949;53.176;18.088;2023-07-20T01:58:42;99891.40;;;
79488;BMP180;68949;53.176;18.088;2023-07-20T02:01:09;99895.60;;;
79488;BMP180;68949;53.176;18.088;2023-07-20T02:03:35;99895.80;;;
79488;BMP180;68949;53.176;18.088;2023-07-20T02:06:02;99895.40;;;
79488;BMP180;68949;53.176;18.088;2023-07-20T02:08:29;99904.20;;;
79488;BMP180;68949;53.176;18.088;2023-07-20T02:10:57;99901.80;;;
79488;BMP180;68949;53.176;18.088;2023-07-20T02:13:24;99899.40;;;
79488;BMP180;68949;53.176;18.088;2023-07-20T02:15:51;99901.00;;;
79488;BMP180;68949;53.176;18.088;2023-07-20T02:18:17;99901.20;;;
79488;BMP180;68949;53.176;18.088;2023-07-20T02:20:44;99903.40;;;
79488;BMP180;68949;53.176;18.088;2023-07-20T02:23:11;99911.20;;;
79488;BMP180;68949;53.176;18.088;2023-07-20T02:25:38;99906.40;;;
79488;BMP180;68949;53.176;18.088;2023-07-20T02:28:07;99910.60;;;
79488;BMP180;68949;53.176;18.088;2023-07-20T02:30:38;99910.40;;;
79488;BMP180;68949;53.176;18.088;2023-07-20T02:33:07;99910.60;;;
79488;BMP180;68949;53.176;18.088;2023-07-20T02:35:34;99910.00;;;
79488;BMP180;68949;53.176;18.088;2023-07-20T02:38:00;99909.80;;;
79488;BMP180;68949;53.176;18.088;2023-07-20T02:40:27;99907.40;;;
79488;BMP180;68949;53.176;18.088;2023-07-20T02:42:54;99900.80;;;
79488;BMP180;68949;53.176;18.088;2023-07-20T02:45:20;99897.80;;;
79488;BMP180;68949;53.176;18.088;2023-07-20T02:47:47;99892.40;;;
79488;BMP180;68949;53.176;18.088;2023-07-20T02:50:14;99887.60;;;
79488;BMP180;68949;53.176;18.088;2023-07-20T02:52:40;99883.40;;;
79488;BMP180;68949;53.176;18.088;2023-07-20T02:55:08;99876.80;;;
79488;BMP180;68949;53.176;18.088;2023-07-20T02:57:34;99875.00;;;
79488;BMP180;68949;53.176;18.088;2023-07-20T03:00:03;99878.20;;;
79488;BMP180;68949;53.176;18.088;2023-07-20T03:02:32;99876.00;;;
79488;BMP180;68949;53.176;18.088;2023-07-20T03:04:59;99877.20;;;
79488;BMP180;68949;53.176;18.088;2023-07-20T03:07:30;99876.20;;;
79488;BMP180;68949;53.176;18.088;2023-07-20T03:09:56;99876.60;;;
79488;BMP180;68949;53.176;18.088;2023-07-20T03:12:23;99871.20;;;
79488;BMP180;68949;53.176;18.088;2023-07-20T03:14:51;99875.20;;;
79488;BMP180;68949;53.176;18.088;2023-07-20T03:17:17;99872.40;;;
79488;BMP180;68949;53.176;18.088;2023-07-20T03:19:45;99873.40;;;
79488;BMP180;68949;53.176;18.088;2023-07-20T03:22:12;99876.80;;;
79488;BMP180;68949;53.176;18.088;2023-07-20T03:24:38;99876.40;;;
79488;BMP180;68949;53.176;18.088;2023-07-20T03:27:05;99880.00;;;
79488;BMP180;68949;53.176;18.088;2023-07-20T03:29:32;99880.60;;;
79488;BMP180;68949;53.176;18.088;2023-07-20T03:32:00;99886.80;;;
79488;BMP180;68949;53.176;18.088;2023-07-20T03:34:26;99879.20;;;
79488;BMP180;68949;53.176;18.088;2023-07-20T03:36:53;99873.80;;;
79488;BMP180;68949;53.176;18.088;2023-07-20T03:39:20;99880.40;;;
79488;BMP180;68949;53.176;18.088;2023-07-20T03:41:46;99882.00;;;
79488;BMP180;68949;53.176;18.088;2023-07-20T03:44:13;99881.40;;;
79488;BMP180;68949;53.176;18.088;2023-07-20T03:46:40;99881.00;;;
79488;BMP180;68949;53.176;18.088;2023-07-20T03:49:06;99875.80;;;
79488;BMP180;68949;53.176;18.088;2023-07-20T03:51:35;99875.40;;;
79488;BMP180;68949;53.176;18.088;2023-07-20T03:54:02;99878.80;;;
79488;BMP180;68949;53.176;18.088;2023-07-20T03:56:28;99875.00;;;
79488;BMP180;68949;53.176;18.088;2023-07-20T03:58:58;99877.80;;;
79488;BMP180;68949;53.176;18.088;2023-07-20T04:01:24;99876.40;;;
79488;BMP180;68949;53.176;18.088;2023-07-20T04:03:51;99879.60;;;
79488;BMP180;68949;53.176;18.088;2023-07-20T04:06:18;99877.00;;;
79488;BMP180;68949;53.176;18.088;2023-07-20T04:08:44;99873.40;;;
79488;BMP180;68949;53.176;18.088;2023-07-20T04:11:13;99876.60;;;
79488;BMP180;68949;53.176;18.088;2023-07-20T04:13:40;99876.60;;;
79488;BMP180;68949;53.176;18.088;2023-07-20T04:16:06;99874.60;;;
79488;BMP180;68949;53.176;18.088;2023-07-20T04:18:33;99877.80;;;
79488;BMP180;68949;53.176;18.088;2023-07-20T04:21:00;99883.60;;;
79488;BMP180;68949;53.176;18.088;2023-07-20T04:23:26;99883.80;;;
79488;BMP180;68949;53.176;18.088;2023-07-20T04:25:53;99881.80;;;
79488;BMP180;68949;53.176;18.088;2023-07-20T04:28:20;99887.40;;;
79488;BMP180;68949;53.176;18.088;2023-07-20T04:30:49;99886.60;;;
79488;BMP180;68949;53.176;18.088;2023-07-20T04:33:19;99883.40;;;
79488;BMP180;68949;53.176;18.088;2023-07-20T04:35:54;99879.80;;;
79488;BMP180;68949;53.176;18.088;2023-07-20T04:38:25;99877.60;;;
79488;BMP180;68949;53.176;18.088;2023-07-20T04:41:05;99876.00;;;
79488;BMP180;68949;53.176;18.088;2023-07-20T04:43:36;99873.00;;;
79488;BMP180;68949;53.176;18.088;2023-07-20T04:46:03;99869.80;;;
79488;BMP180;68949;53.176;18.088;2023-07-20T04:48:33;99868.00;;;
79488;BMP180;68949;53.176;18.088;2023-07-20T04:50:59;99870.00;;;
79488;BMP180;68949;53.176;18.088;2023-07-20T04:53:26;99859.80;;;
79488;BMP180;68949;53.176;18.088;2023-07-20T04:55:53;99864.40;;;
79488;BMP180;68949;53.176;18.088;2023-07-20T04:58:22;99867.80;;;
79488;BMP180;68949;53.176;18.088;2023-07-20T05:00:49;99870.80;;;
79488;BMP180;68949;53.176;18.088;2023-07-20T05:03:17;99867.00;;;
79488;BMP180;68949;53.176;18.088;2023-07-20T05:05:43;99861.40;;;
79488;BMP180;68949;53.176;18.088;2023-07-20T05:08:11;99860.00;;;
79488;BMP180;68949;53.176;18.088;2023-07-20T05:10:37;99854.80;;;
79488;BMP180;68949;53.176;18.088;2023-07-20T05:13:04;99853.60;;;
79488;BMP180;68949;53.176;18.088;2023-07-20T05:15:33;99855.40;;;
79488;BMP180;68949;53.176;18.088;2023-07-20T05:18:01;99862.00;;;
79488;BMP180;68949;53.176;18.088;2023-07-20T05:20:28;99853.60;;;
79488;BMP180;68949;53.176;18.088;2023-07-20T05:22:56;99860.80;;;
79488;BMP180;68949;53.176;18.088;2023-07-20T05:25:22;99857.40;;;
79488;BMP180;68949;53.176;18.088;2023-07-20T05:27:49;99864.20;;;
79488;BMP180;68949;53.176;18.088;2023-07-20T05:30:17;99863.80;;;
79488;BMP180;68949;53.176;18.088;2023-07-20T05:32:43;99856.00;;;
79488;BMP180;68949;53.176;18.088;2023-07-20T05:35:12;99857.80;;;
79488;BMP180;68949;53.176;18.088;2023-07-20T05:37:40;99849.20;;;
79488;BMP180;68949;53.176;18.088;2023-07-20T05:40:07;99857.20;;;
79488;BMP180;68949;53.176;18.088;2023-07-20T05:42:35;99858.60;;;
79488;BMP180;68949;53.176;18.088;2023-07-20T05:45:01;99854.20;;;
79488;BMP180;68949;53.176;18.088;2023-07-20T05:47:28;99849.20;;;
79488;BMP180;68949;53.176;18.088;2023-07-20T05:49:55;99840.00;;;
79488;BMP180;68949;53.176;18.088;2023-07-20T05:52:22;99851.20;;;
79488;BMP180;68949;53.176;18.088;2023-07-20T05:54:48;99848.00;;;
79488;BMP180;68949;53.176;18.088;2023-07-20T05:57:15;99840.00;;;
79488;BMP180;68949;53.176;18.088;2023-07-20T05:59:42;99827.60;;;
79488;BMP180;68949;53.176;18.088;2023-07-20T06:02:11;99832.40;;;
79488;BMP180;68949;53.176;18.088;2023-07-20T06:04:39;99841.80;;;
79488;BMP180;68949;53.176;18.088;2023-07-20T06:07:06;99837.20;;;
79488;BMP180;68949;53.176;18.088;2023-07-20T06:09:34;99827.40;;;
79488;BMP180;68949;53.176;18.088;2023-07-20T06:12:01;99824.60;;;
79488;BMP180;68949;53.176;18.088;2023-07-20T06:14:28;99823.00;;;
79488;BMP180;68949;53.176;18.088;2023-07-20T06:16:55;99832.80;;;
79488;BMP180;68949;53.176;18.088;2023-07-20T06:19:21;99825.20;;;
79488;BMP180;68949;53.176;18.088;2023-07-20T06:21:49;99824.60;;;
79488;BMP180;68949;53.176;18.088;2023-07-20T06:24:18;99825.00;;;
79488;BMP180;68949;53.176;18.088;2023-07-20T06:26:45;99825.00;;;
79488;BMP180;68949;53.176;18.088;2023-07-20T06:29:11;99825.40;;;
79488;BMP180;68949;53.176;18.088;2023-07-20T06:31:38;99827.40;;;
79488;BMP180;68949;53.176;18.088;2023-07-20T06:34:05;99824.20;;;
79488;BMP180;68949;53.176;18.088;2023-07-20T06:36:31;99813.60;;;
79488;BMP180;68949;53.176;18.088;2023-07-20T06:38:58;99819.60;;;
79488;BMP180;68949;53.176;18.088;2023-07-20T06:41:25;99828.00;;;
79488;BMP180;68949;53.176;18.088;2023-07-20T06:43:51;99834.20;;;
79488;BMP180;68949;53.176;18.088;2023-07-20T06:46:19;99828.40;;;
79488;BMP180;68949;53.176;18.088;2023-07-20T06:48:45;99819.80;;;
79488;BMP180;68949;53.176;18.088;2023-07-20T06:51:12;99810.60;;;
79488;BMP180;68949;53.176;18.088;2023-07-20T06:53:38;99807.80;;;
79488;BMP180;68949;53.176;18.088;2023-07-20T06:56:05;99810.40;;;
79488;BMP180;68949;53.176;18.088;2023-07-20T06:58:32;99801.00;;;
79488;BMP180;68949;53.176;18.088;2023-07-20T07:00:59;99800.80;;;
79488;BMP180;68949;53.176;18.088;2023-07-20T07:03:30;99798.80;;;
79488;BMP180;68949;53.176;18.088;2023-07-20T07:05:57;99801.60;;;
79488;BMP180;68949;53.176;18.088;2023-07-20T07:08:24;99788.20;;;
79488;BMP180;68949;53.176;18.088;2023-07-20T07:10:52;99793.40;;;
79488;BMP180;68949;53.176;18.088;2023-07-20T07:13:19;99785.80;;;
79488;BMP180;68949;53.176;18.088;2023-07-20T07:15:46;99783.20;;;
79488;BMP180;68949;53.176;18.088;2023-07-20T07:18:12;99794.40;;;
79488;BMP180;68949;53.176;18.088;2023-07-20T07:20:39;99794.60;;;
79488;BMP180;68949;53.176;18.088;2023-07-20T07:23:06;99792.00;;;
79488;BMP180;68949;53.176;18.088;2023-07-20T07:25:32;99779.80;;;
79488;BMP180;68949;53.176;18.088;2023-07-20T07:27:59;99791.20;;;
79488;BMP180;68949;53.176;18.088;2023-07-20T07:30:26;99785.60;;;
79488;BMP180;68949;53.176;18.088;2023-07-20T07:32:53;99795.80;;;
79488;BMP180;68949;53.176;18.088;2023-07-20T07:35:19;99800.00;;;
79488;BMP180;68949;53.176;18.088;2023-07-20T07:37:46;99798.00;;;
79488;BMP180;68949;53.176;18.088;2023-07-20T07:40:13;99770.60;;;
79488;BMP180;68949;53.176;18.088;2023-07-20T07:42:39;99775.80;;;
79488;BMP180;68949;53.176;18.088;2023-07-20T07:45:07;99787.00;;;
79488;BMP180;68949;53.176;18.088;2023-07-20T07:47:34;99770.60;;;
79488;BMP180;68949;53.176;18.088;2023-07-20T07:50:00;99791.20;;;
79488;BMP180;68949;53.176;18.088;2023-07-20T07:52:27;99790.00;;;
79488;BMP180;68949;53.176;18.088;2023-07-20T07:54:54;99787.20;;;
79488;BMP180;68949;53.176;18.088;2023-07-20T07:57:20;99789.40;;;
79488;BMP180;68949;53.176;18.088;2023-07-20T07:59:47;99766.00;;;
79488;BMP180;68949;53.176;18.088;2023-07-20T08:02:13;99779.20;;;
79488;BMP180;68949;53.176;18.088;2023-07-20T08:04:40;99776.60;;;
79488;BMP180;68949;53.176;18.088;2023-07-20T08:07:07;99784.80;;;
79488;BMP180;68949;53.176;18.088;2023-07-20T08:09:34;99802.00;;;
79488;BMP180;68949;53.176;18.088;2023-07-20T08:12:00;99788.60;;;
79488;BMP180;68949;53.176;18.088;2023-07-20T08:14:27;99785.20;;;
79488;BMP180;68949;53.176;18.088;2023-07-20T08:16:53;99773.80;;;
79488;BMP180;68949;53.176;18.088;2023-07-20T08:19:20;99772.20;;;
79488;BMP180;68949;53.176;18.088;2023-07-20T08:21:47;99752.60;;;
79488;BMP180;68949;53.176;18.088;2023-07-20T08:24:14;99756.40;;;
79488;BMP180;68949;53.176;18.088;2023-07-20T08:26:41;99747.80;;;
79488;BMP180;68949;53.176;18.088;2023-07-20T08:29:07;99744.60;;;
79488;BMP180;68949;53.176;18.088;2023-07-20T08:31:34;99753.40;;;
79488;BMP180;68949;53.176;18.088;2023-07-20T08:34:01;99735.00;;;
79488;BMP180;68949;53.176;18.088;2023-07-20T08:36:27;99756.80;;;
79488;BMP180;68949;53.176;18.088;2023-07-20T08:38:54;99756.00;;;
79488;BMP180;68949;53.176;18.088;2023-07-20T08:41:21;99769.00;;;
79488;BMP180;68949;53.176;18.088;2023-07-20T08:43:49;99772.60;;;
79488;BMP180;68949;53.176;18.088;2023-07-20T08:46:16;99769.40;;;
79488;BMP180;68949;53.176;18.088;2023-07-20T08:48:43;99764.00;;;
79488;BMP180;68949;53.176;18.088;2023-07-20T08:51:11;99769.60;;;
79488;BMP180;68949;53.176;18.088;2023-07-20T08:53:39;99759.80;;;
79488;BMP180;68949;53.176;18.088;2023-07-20T08:56:08;99754.40;;;
79488;BMP180;68949;53.176;18.088;2023-07-20T08:58:41;99743.40;;;
79488;BMP180;68949;53.176;18.088;2023-07-20T09:01:10;99742.80;;;
79488;BMP180;68949;53.176;18.088;2023-07-20T09:03:36;99750.60;;;
79488;BMP180;68949;53.176;18.088;2023-07-20T09:06:06;99746.60;;;
79488;BMP180;68949;53.176;18.088;2023-07-20T09:08:32;99730.00;;;
79488;BMP180;68949;53.176;18.088;2023-07-20T09:10:59;99740.20;;;
79488;BMP180;68949;53.176;18.088;2023-07-20T09:13:26;99756.00;;;
79488;BMP180;68949;53.176;18.088;2023-07-20T09:15:54;99731.00;;;
79488;BMP180;68949;53.176;18.088;2023-07-20T09:18:29;99736.80;;;
79488;BMP180;68949;53.176;18.088;2023-07-20T09:21:03;99744.80;;;
79488;BMP180;68949;53.176;18.088;2023-07-20T09:23:34;99734.60;;;
79488;BMP180;68949;53.176;18.088;2023-07-20T09:26:13;99733.00;;;
79488;BMP180;68949;53.176;18.088;2023-07-20T09:28:48;99724.40;;;
79488;BMP180;68949;53.176;18.088;2023-07-20T09:31:20;99740.40;;;
79488;BMP180;68949;53.176;18.088;2023-07-20T09:33:49;99741.20;;;
79488;BMP180;68949;53.176;18.088;2023-07-20T09:36:16;99749.40;;;
79488;BMP180;68949;53.176;18.088;2023-07-20T09:38:43;99752.80;;;
79488;BMP180;68949;53.176;18.088;2023-07-20T09:41:14;99749.80;;;
79488;BMP180;68949;53.176;18.088;2023-07-20T09:43:50;99711.60;;;
79488;BMP180;68949;53.176;18.088;2023-07-20T09:46:17;99718.80;;;
79488;BMP180;68949;53.176;18.088;2023-07-20T09:48:54;99709.60;;;
79488;BMP180;68949;53.176;18.088;2023-07-20T09:51:24;99692.40;;;
79488;BMP180;68949;53.176;18.088;2023-07-20T09:53:53;99704.00;;;
79488;BMP180;68949;53.176;18.088;2023-07-20T09:56:22;99692.00;;;
79488;BMP180;68949;53.176;18.088;2023-07-20T09:58:50;99695.80;;;
79488;BMP180;68949;53.176;18.088;2023-07-20T10:01:21;99684.40;;;
79488;BMP180;68949;53.176;18.088;2023-07-20T10:03:58;99671.00;;;
79488;BMP180;68949;53.176;18.088;2023-07-20T10:06:27;99693.40;;;
79488;BMP180;68949;53.176;18.088;2023-07-20T10:09:01;99659.00;;;
79488;BMP180;68949;53.176;18.088;2023-07-20T10:11:32;99697.00;;;
79488;BMP180;68949;53.176;18.088;2023-07-20T10:14:04;99697.60;;;
79488;BMP180;68949;53.176;18.088;2023-07-20T10:16:49;99691.40;;;
79488;BMP180;68949;53.176;18.088;2023-07-20T10:19:46;99676.20;;;
79488;BMP180;68949;53.176;18.088;2023-07-20T10:22:26;99685.40;;;
79488;BMP180;68949;53.176;18.088;2023-07-20T10:24:54;99668.60;;;
79488;BMP180;68949;53.176;18.088;2023-07-20T10:27:21;99672.60;;;
79488;BMP180;68949;53.176;18.088;2023-07-20T10:29:49;99685.20;;;
79488;BMP180;68949;53.176;18.088;2023-07-20T10:32:18;99678.00;;;
79488;BMP180;68949;53.176;18.088;2023-07-20T10:34:52;99684.40;;;
79488;BMP180;68949;53.176;18.088;2023-07-20T10:37:59;99688.20;;;
79488;BMP180;68949;53.176;18.088;2023-07-20T10:40:34;99685.20;;;
79488;BMP180;68949;53.176;18.088;2023-07-20T10:43:09;99690.80;;;
79488;BMP180;68949;53.176;18.088;2023-07-20T10:45:42;99690.00;;;
79488;BMP180;68949;53.176;18.088;2023-07-20T10:48:23;99690.80;;;
79488;BMP180;68949;53.176;18.088;2023-07-20T10:51:20;99695.40;;;
79488;BMP180;68949;53.176;18.088;2023-07-20T10:53:50;99684.00;;;
79488;BMP180;68949;53.176;18.088;2023-07-20T10:56:22;99687.40;;;
79488;BMP180;68949;53.176;18.088;2023-07-20T10:58:57;99676.60;;;
79488;BMP180;68949;53.176;18.088;2023-07-20T11:01:29;99681.60;;;
79488;BMP180;68949;53.176;18.088;2023-07-20T11:03:59;99679.20;;;
79488;BMP180;68949;53.176;18.088;2023-07-20T11:06:30;99672.40;;;
79488;BMP180;68949;53.176;18.088;2023-07-20T11:09:08;99661.80;;;
79488;BMP180;68949;53.176;18.088;2023-07-20T11:11:39;99664.80;;;
79488;BMP180;68949;53.176;18.088;2023-07-20T11:14:23;99651.00;;;
79488;BMP180;68949;53.176;18.088;2023-07-20T11:16:53;99673.60;;;
79488;BMP180;68949;53.176;18.088;2023-07-20T11:19:25;99677.20;;;
79488;BMP180;68949;53.176;18.088;2023-07-20T11:21:57;99678.20;;;
79488;BMP180;68949;53.176;18.088;2023-07-20T11:24:24;99680.60;;;
79488;BMP180;68949;53.176;18.088;2023-07-20T11:26:54;99684.20;;;
79488;BMP180;68949;53.176;18.088;2023-07-20T11:29:23;99685.60;;;
79488;BMP180;68949;53.176;18.088;2023-07-20T11:31:57;99686.40;;;
79488;BMP180;68949;53.176;18.088;2023-07-20T11:34:25;99686.60;;;
79488;BMP180;68949;53.176;18.088;2023-07-20T11:36:51;99681.00;;;
79488;BMP180;68949;53.176;18.088;2023-07-20T11:39:21;99683.20;;;
79488;BMP180;68949;53.176;18.088;2023-07-20T11:41:56;99687.40;;;
79488;BMP180;68949;53.176;18.088;2023-07-20T11:44:26;99761.80;;;
79488;BMP180;68949;53.176;18.088;2023-07-20T11:47:11;99815.00;;;
79488;BMP180;68949;53.176;18.088;2023-07-20T11:49:41;99861.20;;;
79488;BMP180;68949;53.176;18.088;2023-07-20T11:52:15;99874.80;;;
79488;BMP180;68949;53.176;18.088;2023-07-20T11:54:44;99914.60;;;
79488;BMP180;68949;53.176;18.088;2023-07-20T11:57:18;99947.20;;;
79488;BMP180;68949;53.176;18.088;2023-07-20T12:00:01;99952.20;;;
79488;BMP180;68949;53.176;18.088;2023-07-20T12:02:32;99948.60;;;
79488;BMP180;68949;53.176;18.088;2023-07-20T12:04:59;99945.60;;;
79488;BMP180;68949;53.176;18.088;2023-07-20T12:07:28;99954.60;;;
79488;BMP180;68949;53.176;18.088;2023-07-20T12:10:05;99949.80;;;
79488;BMP180;68949;53.176;18.088;2023-07-20T12:12:42;99952.60;;;
79488;BMP180;68949;53.176;18.088;2023-07-20T12:15:27;99932.60;;;
79488;BMP180;68949;53.176;18.088;2023-07-20T12:17:58;99936.00;;;
79488;BMP180;68949;53.176;18.088;2023-07-20T12:20:31;99924.40;;;
79488;BMP180;68949;53.176;18.088;2023-07-20T12:23:04;99927.80;;;
79488;BMP180;68949;53.176;18.088;2023-07-20T12:25:46;99923.40;;;
79488;BMP180;68949;53.176;18.088;2023-07-20T12:28:16;99929.20;;;
79488;BMP180;68949;53.176;18.088;2023-07-20T12:30:45;99924.20;;;
79488;BMP180;68949;53.176;18.088;2023-07-20T12:33:13;99936.40;;;
79488;BMP180;68949;53.176;18.088;2023-07-20T12:35:42;99928.00;;;
79488;BMP180;68949;53.176;18.088;2023-07-20T12:38:10;99904.20;;;
79488;BMP180;68949;53.176;18.088;2023-07-20T12:40:36;99906.40;;;
79488;BMP180;68949;53.176;18.088;2023-07-20T12:43:06;99890.80;;;
79488;BMP180;68949;53.176;18.088;2023-07-20T12:45:33;99891.80;;;
79488;BMP180;68949;53.176;18.088;2023-07-20T12:48:00;99888.00;;;
79488;BMP180;68949;53.176;18.088;2023-07-20T12:50:27;99899.00;;;
79488;BMP180;68949;53.176;18.088;2023-07-20T12:52:54;99902.40;;;
79488;BMP180;68949;53.176;18.088;2023-07-20T12:55:21;99900.80;;;
79488;BMP180;68949;53.176;18.088;2023-07-20T12:57:47;99899.60;;;
79488;BMP180;68949;53.176;18.088;2023-07-20T13:00:15;99880.00;;;
79488;BMP180;68949;53.176;18.088;2023-07-20T13:02:43;99878.20;;;
79488;BMP180;68949;53.176;18.088;2023-07-20T13:05:10;99875.60;;;
79488;BMP180;68949;53.176;18.088;2023-07-20T13:07:38;99870.40;;;
79488;BMP180;68949;53.176;18.088;2023-07-20T13:10:06;99870.80;;;
79488;BMP180;68949;53.176;18.088;2023-07-20T13:12:35;99861.80;;;
79488;BMP180;68949;53.176;18.088;2023-07-20T13:15:08;99868.20;;;
79488;BMP180;68949;53.176;18.088;2023-07-20T13:17:36;99850.60;;;
79488;BMP180;68949;53.176;18.088;2023-07-20T13:20:05;99862.20;;;
79488;BMP180;68949;53.176;18.088;2023-07-20T13:22:33;99854.40;;;
79488;BMP180;68949;53.176;18.088;2023-07-20T13:25:00;99827.60;;;
79488;BMP180;68949;53.176;18.088;2023-07-20T13:27:30;99831.00;;;
79488;BMP180;68949;53.176;18.088;2023-07-20T13:30:00;99854.20;;;
79488;BMP180;68949;53.176;18.088;2023-07-20T13:32:27;99802.80;;;
79488;BMP180;68949;53.176;18.088;2023-07-20T13:34:54;99824.20;;;
79488;BMP180;68949;53.176;18.088;2023-07-20T13:37:21;99825.80;;;
79488;BMP180;68949;53.176;18.088;2023-07-20T13:39:48;99800.20;;;
79488;BMP180;68949;53.176;18.088;2023-07-20T13:42:15;99802.60;;;
79488;BMP180;68949;53.176;18.088;2023-07-20T13:44:41;99777.80;;;
79488;BMP180;68949;53.176;18.088;2023-07-20T13:47:08;99781.40;;;
79488;BMP180;68949;53.176;18.088;2023-07-20T13:49:34;99763.40;;;
79488;BMP180;68949;53.176;18.088;2023-07-20T13:52:01;99782.40;;;
79488;BMP180;68949;53.176;18.088;2023-07-20T13:54:28;99774.80;;;
79488;BMP180;68949;53.176;18.088;2023-07-20T13:56:55;99766.00;;;
79488;BMP180;68949;53.176;18.088;2023-07-20T13:59:23;99770.80;;;
79488;BMP180;68949;53.176;18.088;2023-07-20T14:01:49;99760.80;;;
79488;BMP180;68949;53.176;18.088;2023-07-20T14:04:16;99759.40;;;
79488;BMP180;68949;53.176;18.088;2023-07-20T14:06:43;99778.80;;;
79488;BMP180;68949;53.176;18.088;2023-07-20T14:09:10;99766.80;;;
79488;BMP180;68949;53.176;18.088;2023-07-20T14:11:37;99784.60;;;
79488;BMP180;68949;53.176;18.088;2023-07-20T14:14:03;99778.00;;;
79488;BMP180;68949;53.176;18.088;2023-07-20T14:16:30;99786.60;;;
79488;BMP180;68949;53.176;18.088;2023-07-20T14:18:58;99791.60;;;
79488;BMP180;68949;53.176;18.088;2023-07-20T14:21:25;99786.00;;;
79488;BMP180;68949;53.176;18.088;2023-07-20T14:23:52;99797.60;;;
79488;BMP180;68949;53.176;18.088;2023-07-20T14:26:21;99809.00;;;
79488;BMP180;68949;53.176;18.088;2023-07-20T14:28:48;99798.00;;;
79488;BMP180;68949;53.176;18.088;2023-07-20T14:31:15;99809.60;;;
79488;BMP180;68949;53.176;18.088;2023-07-20T14:33:42;99800.40;;;
79488;BMP180;68949;53.176;18.088;2023-07-20T14:36:09;99825.20;;;
79488;BMP180;68949;53.176;18.088;2023-07-20T14:38:35;99823.80;;;
79488;BMP180;68949;53.176;18.088;2023-07-20T14:41:03;99818.20;;;
79488;BMP180;68949;53.176;18.088;2023-07-20T14:43:32;99832.40;;;
79488;BMP180;68949;53.176;18.088;2023-07-20T14:45:59;99858.20;;;
79488;BMP180;68949;53.176;18.088;2023-07-20T14:48:25;99885.80;;;
79488;BMP180;68949;53.176;18.088;2023-07-20T14:50:52;99908.40;;;
79488;BMP180;68949;53.176;18.088;2023-07-20T14:53:19;99906.40;;;
79488;BMP180;68949;53.176;18.088;2023-07-20T14:55:46;99911.20;;;
79488;BMP180;68949;53.176;18.088;2023-07-20T14:58:13;99887.00;;;
79488;BMP180;68949;53.176;18.088;2023-07-20T15:00:39;99882.60;;;
79488;BMP180;68949;53.176;18.088;2023-07-20T15:03:06;99898.20;;;
79488;BMP180;68949;53.176;18.088;2023-07-20T15:05:36;99897.40;;;
79488;BMP180;68949;53.176;18.088;2023-07-20T15:08:04;99905.40;;;
79488;BMP180;68949;53.176;18.088;2023-07-20T15:10:32;99904.20;;;
79488;BMP180;68949;53.176;18.088;2023-07-20T15:12:59;99912.40;;;
79488;BMP180;68949;53.176;18.088;2023-07-20T15:15:26;99923.40;;;